Aeroporto :
LOGIN :

Iscrizione | Disclaimer

   EN    FR    IT 

 










Sommario :    VFR   VFR Marginale   IFR   IFR Intensivo   IFR Molto Intensivo
Visibilità : 
Base nubi : 
>= 8 km
>= 3000ft
5 / 8 km
1000 / 3000 ft
1500m / 5 km
500 / 1000 ft
800 / 1500m
200 / 500 ft
< 800m
< 200 ft
Simboli :   Temporali  Nebbia  Neve Forte  Precipitazioni Forti  Vento > 20 kt
SIGMETs :   Varie  Temporali  Ghiacco  Turbolenza  Onda orograficha  Ceneri Vulcaniche






- Altitudine del aeroporto : 333 ft


LIPL - Ghedi Brescia (Mil)

ULTIMO METAR :
  • 050555Z 28004KT 5000 BR SCT030 SCT060 16/13 Q0996 RMK BKN VIS MIN 5000 WIND THR31 27006KT WIND THR13 28005KT WHT

METARs OBSOLETI :
  • 050455Z 29002KT 5000 -RA BR SCT033 BKN050 15/12 Q0996 RMK OVC VIS MIN 5000 WIND THR31 28003KT WIND THR13 27003KT WHT
  • 050355Z 27004KT 5000 -RA BR SCT030 BKN050 15/12 Q0995 RMK OVC VIS MIN 5000 WIND THR31 28005KT WIND THR13 27004KT WHT

TAF TAF LIPL
Valido dal 05 a 06 ore il 05 a 15 ore UTC


050500Z 0506/0515 27005KT 6000 SCT030 SCT060
TEMPO 0506/0508 4000 RA BR



MetMap, La meteo Aeronautica in un colpo d'occhio ! - Copyright ORBIFLY Dicembre 2007 - Disclaimer

ORBIFLY MET'MAP TEAM :

Programmazione e sviluppo : Alexandra Zaïnal
Concezione : Baudouin d'Aumeries
Aiuto per la programmazione : Marc-Olivier Méhu
Supporto tecnico e logistico : Manuel Goepfert
Aiuto per la traduzione : Arnaldo La Scala

Contatto : metmap@orbifly.com




FONTI E CREDITI :

   NOAA